METAR Reports LIMOGES - BRIVE - BERGERAC - ANGOULEME - CLERMOND-FERRAND - AURILLAC

 

LFBL - Aeroport de Limoges-Bellegarde
Distance from station: NE 45km
Mise à jour: 13/04/2024 21:30
Clair
Clair
 Wind from NO
Vent: NO 9 km/h
Température: 20°C
Pt de rosée: 11°C
Humidité: 56%
Baromètre: 1026 hPa
Résumé: Clair
Visibility: greater than 10 km
2024/04/13 19:30 LFBL 131930Z AUTO 31005KT CAVOK 20/11 Q1026 NOSIG
LFSL - Aeroport de Brive-Vallee de la Dordogne
Distance from station: S 40km
Mise à jour: 13/04/2024 21:30
Clair
Clair
 Wind from calm
Vent: calme
Température: 18°C
Pt de rosée: 13°C
Humidité: 73%
Baromètre: 1025 hPa
Résumé: Clair
Visibility: greater than 10 km
2024/04/13 19:30 LFSL 131930Z AUTO 00000KT CAVOK 18/13 Q1025 NOSIG
 
LFBE - Aeroport de Bergerac-Dordogne-Perigord
Distance from station: SO 150km
Mise à jour: 13/04/2024 21:30
Clair
Clair
 Wind from SSE
Vent: SSE 2 km/h
Température: 18°C
Pt de rosée: 15°C
Humidité: 83%
Baromètre: 1024 hPa
Résumé: Clair
Visibility: greater than 10 km
2024/04/13 19:30 LFBE 131930Z AUTO 15001KT CAVOK 18/15 Q1024 NOSIG
LFBU - Aeroport international Angouleme-Cognac
Distance from station: SSO 120km
Mise à jour: 13/04/2024 21:30
Clair
Clair
 Wind from ONO
Vent: ONO 13 km/h
Température: 20°C
Pt de rosée: 14°C
Humidité: 69%
Baromètre: 1025 hPa
Résumé: Clair
Visibility: greater than 10 km
2024/04/13 19:30 LFBU 131930Z AUTO 30007KT CAVOK 20/14 Q1025 NOSIG
 
LFLC - Aeroport de Clermont-Ferrand Auvergne
Distance from station: E 200km
Mise à jour: 13/04/2024 21:30
Clair
Clair
 Wind from varies
Vent: varies 6 km/h
Température: 19°C
Pt de rosée: 12°C
Humidité: 64%
Baromètre: 1026 hPa
Résumé: Clair
Visibility: greater than 10 km
2024/04/13 19:30 LFLC 131930Z AUTO VRB03KT CAVOK 19/12 Q1026 NOSIG
LFLW - Aeroport Aurillac
Distance from station: SE 120km
Mise à jour: 13/04/2024 11:30
NOT Current
Clair
Clair
 Wind from NNO
Vent: NNO 7 km/h
Température: 21°C
Pt de rosée: 8°C
Humidité: 43%
Baromètre: 1029 hPa
Résumé: Clair
Visibility: greater than 10 km
2024/04/13 09:30 LFLW 130930Z AUTO 33004KT 270V010 CAVOK 21/08 Q1029 NOSIG